KLNK/LNK METAR and TAF weather

Enter ICAO airport designator
Station Type Date Time Source
KLNK METAR 2020/09/26 09:54 UTC NOAA

KLNK 260954Z 00000KT 10SM CLR 16/13 A2966 RMK AO2 SLP032 T01560133


Station Type Date Time Source
KLNK Decoded METAR 2020/09/26 09:54 UTC NOAA

LINCOLN MUNICIPAL AIRPORT, NE, United States (KLNK) 40-50N 96-46W 364M
Sep 26, 2020 - 05:54 AM EDT / 2020.09.26 0954 UTC
Wind: Calm:0
Visibility: 10 mile(s):0
Sky conditions: clear
Temperature: 60.1 F (15.6 C)
Dew Point: 55.9 F (13.3 C)
Relative Humidity: 86%
Pressure (altimeter): 29.66 in. Hg (1004 hPa)
ob: KLNK 260954Z 00000KT 10SM CLR 16/13 A2966 RMK AO2 SLP032 T01560133
cycle: 10

Station Type Date Time Source
KLNK TAF 2020/09/26 06:22 UTC NOAA

TAF KLNK 260520Z 2606/2706 VRB05KT P6SM FEW250
FM260900 20006KT P6SM BKN250
FM261800 24014G22KT P6SM SKC
FM262300 30010KT P6SM SKC

Example: see airport list